createdAt,value
2018-07-03T00:01:56.469Z,71.50
2018-07-03T00:04:25.492Z,72.60
2018-07-03T00:06:57.221Z,77.30
2018-07-03T00:09:26.269Z,81.20
2018-07-03T00:11:58.091Z,79.30
2018-07-03T00:14:27.135Z,74.10
2018-07-03T00:17:01.563Z,75.20
2018-07-03T00:19:33.818Z,74.40
2018-07-03T00:22:02.856Z,74.60
2018-07-03T00:24:31.894Z,74.50
2018-07-03T00:27:02.873Z,74.90
2018-07-03T00:29:32.558Z,73.60
2018-07-03T00:32:02.283Z,73.40
2018-07-03T00:34:31.395Z,74.60
2018-07-03T00:37:01.039Z,73.80
2018-07-03T00:39:30.067Z,73.80
2018-07-03T00:42:02.502Z,78.60
2018-07-03T00:44:31.566Z,71.10
2018-07-03T00:47:00.642Z,71.80
2018-07-03T00:49:30.103Z,72.30
2018-07-03T00:51:59.119Z,72.10
2018-07-03T00:54:28.123Z,72.60
2018-07-03T00:56:57.131Z,72.30
2018-07-03T00:59:26.656Z,73.10
2018-07-03T01:01:55.667Z,73.80
2018-07-03T01:04:24.712Z,73.60
2018-07-03T01:06:54.677Z,74.90
2018-07-03T01:09:24.927Z,74.40
2018-07-03T01:11:54.796Z,74.10
2018-07-03T01:14:28.032Z,73.80
2018-07-03T01:16:57.077Z,74.20
2018-07-03T01:19:26.527Z,74.40
2018-07-03T01:21:56.163Z,74.00
2018-07-03T01:24:25.202Z,73.60
2018-07-03T01:26:55.401Z,73.60
2018-07-03T01:29:24.824Z,74.60
2018-07-03T01:31:53.862Z,75.30
2018-07-03T01:34:22.889Z,75.50
2018-07-03T01:36:51.902Z,75.60
2018-07-03T01:39:22.149Z,74.60
2018-07-03T01:41:51.215Z,73.90
2018-07-03T01:44:20.697Z,74.00
2018-07-03T01:46:49.816Z,74.20
2018-07-03T01:49:18.821Z,74.80
2018-07-03T01:51:49.638Z,75.60
2018-07-03T01:54:18.685Z,76.00
2018-07-03T01:56:48.267Z,76.00
2018-07-03T01:59:17.288Z,76.20
2018-07-03T02:01:46.842Z,76.20
2018-07-03T02:04:16.778Z,76.30
2018-07-03T02:06:46.495Z,74.70
2018-07-03T02:09:15.504Z,74.40
2018-07-03T02:11:44.598Z,74.80
2018-07-03T02:14:14.588Z,75.60
2018-07-03T02:16:44.101Z,75.80
2018-07-03T02:19:13.559Z,75.80
2018-07-03T02:21:45.124Z,75.80
2018-07-03T02:24:14.125Z,75.10
2018-07-03T02:26:44.579Z,75.00
2018-07-03T02:29:13.988Z,75.50
2018-07-03T02:31:43.508Z,77.20
2018-07-03T02:34:12.538Z,77.80
2018-07-03T02:36:42.444Z,78.60
2018-07-03T02:39:12.103Z,78.20
2018-07-03T02:41:41.602Z,77.40
2018-07-03T02:44:10.625Z,77.60
2018-07-03T02:46:39.652Z,77.60
2018-07-03T02:49:08.655Z,77.60
2018-07-03T02:51:38.564Z,77.40
2018-07-03T02:54:10.860Z,77.10
2018-07-03T02:56:39.896Z,77.30
2018-07-03T02:59:08.882Z,77.30
2018-07-03T03:01:40.063Z,77.10
2018-07-03T03:04:09.452Z,77.60
2018-07-03T03:06:39.736Z,78.10
2018-07-03T03:09:10.597Z,78.10
2018-07-03T03:11:39.700Z,78.40
2018-07-03T03:14:08.762Z,78.80
2018-07-03T03:16:37.866Z,79.20
2018-07-03T03:19:07.037Z,78.80
2018-07-03T03:21:36.084Z,78.90
2018-07-03T03:24:05.810Z,79.10
2018-07-03T03:26:35.564Z,78.90
2018-07-03T03:29:04.868Z,78.80
2018-07-03T03:31:33.934Z,78.10
2018-07-03T03:34:03.376Z,78.00
2018-07-03T03:36:33.580Z,78.50
2018-07-03T03:39:02.677Z,79.20
2018-07-03T03:41:32.088Z,79.90
2018-07-03T03:44:01.648Z,80.60
2018-07-03T03:46:31.890Z,81.10
2018-07-03T03:49:01.912Z,81.40
2018-07-03T03:51:30.975Z,80.70
2018-07-03T03:54:00.452Z,79.80
2018-07-03T03:56:29.984Z,80.20
2018-07-03T03:58:58.966Z,80.30
2018-07-03T04:01:31.660Z,81.20
2018-07-03T04:04:01.798Z,81.20
2018-07-03T04:06:30.851Z,81.60
2018-07-03T04:09:01.677Z,82.00
2018-07-03T04:11:30.743Z,82.40
2018-07-03T04:14:01.072Z,83.00
2018-07-03T04:16:30.530Z,83.80
2018-07-03T04:18:59.560Z,82.80
2018-07-03T04:21:32.283Z,83.90
2018-07-03T04:24:01.325Z,83.60
2018-07-03T04:26:31.176Z,81.80
2018-07-03T04:29:00.219Z,82.00
2018-07-03T04:31:29.254Z,82.30
2018-07-03T04:34:01.999Z,83.00
2018-07-03T04:36:34.870Z,82.20
2018-07-03T04:39:05.966Z,82.80
2018-07-03T04:41:35.517Z,82.40
2018-07-03T04:44:04.688Z,82.50
2018-07-03T04:46:33.716Z,81.80
2018-07-03T04:49:02.780Z,81.90
2018-07-03T04:51:32.132Z,81.60
2018-07-03T04:54:01.191Z,79.80
2018-07-03T04:56:31.636Z,79.40
2018-07-03T04:59:00.663Z,79.30
2018-07-03T05:01:29.667Z,80.30
2018-07-03T05:03:58.705Z,80.70
2018-07-03T05:09:04.877Z,80.40
2018-07-03T05:11:33.899Z,80.20
2018-07-03T05:14:03.932Z,79.30
2018-07-03T05:16:32.943Z,79.50
2018-07-03T05:19:02.610Z,79.30
2018-07-03T05:21:32.116Z,79.10
2018-07-03T05:24:01.189Z,77.90
2018-07-03T05:26:30.568Z,78.50
2018-07-03T05:29:01.202Z,79.60
2018-07-03T05:31:30.385Z,78.80
2018-07-03T05:33:59.868Z,78.40
2018-07-03T05:36:28.946Z,78.30
2018-07-03T05:38:58.422Z,78.40
2018-07-03T05:41:27.490Z,78.50
2018-07-03T05:43:57.536Z,77.40
2018-07-03T05:46:29.169Z,76.60
2018-07-03T05:48:58.376Z,76.40
2018-07-03T05:51:27.634Z,75.90
2018-07-03T05:53:58.459Z,76.10
2018-07-03T05:56:27.656Z,74.90
2018-07-03T05:58:59.467Z,75.50
2018-07-03T06:01:31.355Z,76.20
2018-07-03T06:04:00.360Z,74.10
2018-07-03T06:06:30.100Z,74.10
2018-07-03T06:09:00.749Z,74.60
2018-07-03T06:11:30.701Z,73.40
2018-07-03T06:13:59.713Z,74.10
2018-07-03T06:16:28.736Z,73.00
2018-07-03T06:19:01.022Z,73.80
2018-07-03T06:21:30.150Z,74.50
2018-07-03T06:26:33.434Z,69.10
2018-07-03T06:29:03.037Z,66.80
2018-07-03T06:31:31.990Z,64.20
2018-07-03T06:34:00.950Z,63.00
2018-07-03T06:36:30.954Z,60.90
2018-07-03T06:38:59.967Z,59.80
2018-07-03T06:41:29.079Z,61.00
2018-07-03T06:43:58.391Z,62.30
2018-07-03T06:46:27.799Z,62.20
2018-07-03T06:48:56.828Z,62.60
2018-07-03T06:51:25.847Z,62.20
2018-07-03T06:53:54.888Z,61.30
2018-07-03T06:56:24.075Z,60.70
2018-07-03T07:01:22.905Z,60.70
2018-07-03T07:03:52.732Z,59.60
2018-07-03T07:06:21.783Z,58.00
2018-07-03T07:08:50.982Z,58.50
2018-07-03T07:11:19.898Z,58.10
2018-07-03T07:13:49.559Z,57.80
2018-07-03T07:16:20.351Z,57.00
2018-07-03T07:18:49.331Z,57.60
2018-07-03T07:21:18.483Z,57.60
2018-07-03T07:23:48.751Z,58.30
2018-07-03T07:26:17.771Z,57.90
2018-07-03T07:28:46.791Z,57.10
2018-07-03T07:31:15.809Z,57.90
2018-07-03T07:33:44.848Z,58.50
2018-07-03T07:36:14.673Z,56.80
2018-07-03T07:38:43.709Z,57.10
2018-07-03T07:41:13.535Z,56.20
2018-07-03T07:43:42.565Z,55.80
2018-07-03T07:46:12.384Z,56.10
2018-07-03T07:48:42.529Z,55.40
2018-07-03T07:51:11.567Z,53.60
2018-07-03T07:53:40.667Z,51.40
2018-07-03T07:56:09.649Z,49.20
2018-07-03T07:58:38.703Z,46.80
2018-07-03T08:01:07.744Z,42.50
2018-07-03T08:03:37.790Z,39.00
2018-07-03T08:08:37.155Z,77.80
2018-07-03T08:18:33.142Z,24.10
2018-07-03T08:21:03.450Z,24.50
2018-07-03T08:23:32.501Z,22.00
2018-07-03T08:26:01.489Z,21.00
2018-07-03T08:28:30.474Z,20.10
2018-07-03T08:33:28.201Z,20.10
2018-07-03T08:35:57.287Z,20.60
2018-07-03T08:38:26.260Z,20.40
2018-07-03T08:40:56.041Z,20.90
2018-07-03T08:43:25.024Z,22.40
2018-07-03T08:45:58.695Z,23.90
2018-07-03T08:48:27.913Z,24.20
2018-07-03T08:50:56.926Z,25.10
2018-07-03T08:53:25.930Z,26.00
2018-07-03T08:55:54.955Z,26.40
2018-07-03T08:58:24.325Z,27.00
2018-07-03T09:00:53.902Z,27.80
2018-07-03T09:03:22.899Z,27.40
2018-07-03T09:05:56.500Z,28.90
2018-07-03T09:08:28.115Z,28.80
2018-07-03T09:10:58.066Z,30.00
2018-07-03T09:13:27.086Z,30.00
2018-07-03T09:16:01.790Z,29.90
2018-07-03T09:18:36.476Z,29.40
2018-07-03T09:21:11.048Z,30.00
2018-07-03T09:23:45.614Z,29.60
2018-07-03T09:26:20.406Z,29.90
2018-07-03T09:28:55.039Z,30.10
2018-07-03T09:31:29.751Z,29.40
2018-07-03T09:34:04.517Z,29.80
2018-07-03T09:36:39.360Z,30.00
2018-07-03T09:39:13.981Z,30.00
2018-07-03T09:41:48.698Z,29.40
2018-07-03T09:44:23.262Z,29.00
2018-07-03T09:46:58.021Z,29.60
2018-07-03T09:49:32.714Z,28.50
2018-07-03T09:52:07.383Z,26.00
2018-07-03T09:54:41.947Z,26.10
2018-07-03T09:57:16.505Z,25.00
2018-07-03T09:59:51.355Z,24.60
2018-07-03T10:02:26.060Z,23.40
2018-07-03T10:05:00.728Z,23.20
2018-07-03T10:07:35.572Z,22.40
2018-07-03T10:10:10.074Z,22.90
2018-07-03T10:12:44.815Z,22.40
2018-07-03T10:15:19.564Z,21.60
2018-07-03T10:17:54.667Z,22.10
2018-07-03T10:20:29.285Z,22.40
2018-07-03T10:23:04.442Z,22.30
2018-07-03T10:25:40.223Z,23.00
2018-07-03T10:28:14.883Z,23.00
2018-07-03T10:30:49.627Z,22.80
2018-07-03T10:33:24.449Z,22.00
2018-07-03T10:35:59.339Z,21.30
2018-07-03T10:38:33.923Z,19.40
2018-07-03T10:41:08.669Z,18.00
2018-07-03T10:43:43.466Z,18.30
2018-07-03T10:46:18.212Z,19.40
2018-07-03T10:48:52.908Z,21.20
2018-07-03T10:51:27.491Z,22.20
2018-07-03T10:54:02.217Z,22.80
2018-07-03T10:56:36.813Z,23.80
2018-07-03T10:59:11.449Z,24.50
2018-07-03T11:01:46.248Z,25.20
2018-07-03T11:04:20.780Z,25.00
2018-07-03T11:06:55.543Z,25.90
2018-07-03T11:09:30.056Z,27.50
2018-07-03T11:12:06.148Z,26.90
2018-07-03T11:14:41.661Z,26.30
2018-07-03T11:17:16.379Z,26.30
2018-07-03T11:19:51.350Z,26.90
2018-07-03T11:22:25.944Z,27.80
2018-07-03T11:25:00.890Z,26.40
2018-07-03T11:27:37.004Z,26.50
2018-07-03T11:32:46.033Z,27.60
2018-07-03T11:35:20.568Z,27.00
2018-07-03T11:37:56.564Z,26.80
2018-07-03T11:40:31.107Z,27.70
2018-07-03T11:43:05.908Z,28.50
2018-07-03T11:45:40.614Z,26.60
2018-07-03T11:48:15.399Z,26.90
2018-07-03T11:50:50.064Z,27.70
2018-07-03T11:53:24.885Z,26.90
2018-07-03T11:55:59.352Z,27.20
2018-07-03T11:58:34.111Z,27.40
2018-07-03T12:01:08.725Z,27.80
2018-07-03T12:03:43.268Z,27.60
2018-07-03T12:06:18.057Z,27.50
2018-07-03T12:08:52.875Z,27.60
2018-07-03T12:11:27.477Z,27.90
2018-07-03T12:14:02.088Z,28.10
2018-07-03T12:16:36.709Z,28.30
2018-07-03T12:19:19.147Z,28.30
2018-07-03T12:21:53.922Z,28.80
2018-07-03T12:24:28.607Z,28.40
2018-07-03T12:27:03.046Z,27.90
2018-07-03T12:29:37.779Z,27.90
2018-07-03T12:32:12.471Z,28.60
2018-07-03T12:34:42.420Z,27.80
2018-07-03T12:37:11.448Z,28.80
2018-07-03T12:39:40.455Z,28.60
2018-07-03T12:42:09.519Z,28.80
2018-07-03T12:44:39.412Z,28.70
2018-07-03T12:47:08.479Z,28.10
2018-07-03T12:49:38.468Z,29.00
2018-07-03T12:52:07.947Z,29.30
2018-07-03T12:54:36.980Z,30.00
2018-07-03T12:57:09.100Z,29.40
2018-07-03T12:59:38.123Z,28.90
2018-07-03T13:02:07.168Z,28.90
2018-07-03T13:04:37.723Z,29.10
2018-07-03T13:07:06.714Z,29.30
2018-07-03T13:09:35.731Z,29.40
2018-07-03T13:12:04.919Z,29.20
2018-07-03T13:14:34.084Z,28.80
2018-07-03T13:17:03.131Z,28.40
2018-07-03T13:19:32.196Z,28.50
2018-07-03T13:22:02.729Z,29.20
2018-07-03T13:24:32.807Z,30.40
2018-07-03T13:27:03.829Z,30.40
2018-07-03T13:29:32.849Z,30.00
2018-07-03T13:32:02.203Z,31.00
2018-07-03T13:34:32.072Z,31.90
2018-07-03T13:37:01.812Z,31.80
2018-07-03T13:39:32.826Z,30.40
2018-07-03T13:42:03.622Z,30.30
2018-07-03T13:44:37.054Z,31.00
2018-07-03T13:47:06.063Z,31.70
2018-07-03T13:49:37.011Z,32.20
2018-07-03T13:52:06.095Z,31.80
2018-07-03T13:54:35.601Z,31.20
2018-07-03T13:57:04.600Z,31.20
2018-07-03T13:59:34.783Z,31.00
2018-07-03T14:02:04.562Z,30.90
2018-07-03T14:04:38.547Z,32.10
2018-07-03T14:07:07.526Z,32.50
2018-07-03T14:09:36.551Z,32.70
2018-07-03T14:12:05.737Z,32.00
2018-07-03T14:14:35.387Z,32.50
2018-07-03T14:17:05.687Z,31.00
2018-07-03T14:19:37.238Z,31.80
2018-07-03T14:22:06.408Z,32.60
2018-07-03T14:24:36.044Z,32.70
2018-07-03T14:27:05.101Z,33.10
2018-07-03T14:29:36.344Z,33.00
2018-07-03T14:32:07.122Z,33.00
2018-07-03T14:34:38.983Z,32.90
2018-07-03T14:37:08.052Z,32.40
2018-07-03T14:39:37.075Z,32.30
2018-07-03T14:42:06.110Z,31.40
2018-07-03T14:44:35.231Z,31.10
2018-07-03T14:47:06.790Z,30.70
2018-07-03T14:49:35.842Z,32.00
2018-07-03T14:52:05.039Z,31.90
2018-07-03T14:54:34.037Z,32.80
2018-07-03T14:57:03.163Z,31.50
2018-07-03T14:59:49.920Z,30.70
2018-07-03T15:02:19.387Z,29.80
2018-07-03T15:04:49.752Z,30.00
2018-07-03T15:07:18.817Z,30.70
2018-07-03T15:09:47.883Z,30.80
2018-07-03T15:12:16.910Z,30.40
2018-07-03T15:14:47.029Z,30.60
2018-07-03T15:19:51.564Z,32.20
2018-07-03T15:22:21.083Z,32.30
2018-07-03T15:24:50.173Z,32.00
2018-07-03T15:27:19.207Z,31.40
2018-07-03T15:29:49.843Z,31.20
2018-07-03T15:32:19.326Z,31.40
2018-07-03T15:34:48.355Z,31.60
2018-07-03T15:37:17.838Z,32.00
2018-07-03T15:39:48.332Z,31.10
2018-07-03T15:42:18.131Z,31.30
2018-07-03T15:44:58.434Z,30.70
2018-07-03T15:47:27.442Z,30.10
2018-07-03T15:49:57.358Z,29.20
2018-07-03T15:52:28.877Z,29.60
2018-07-03T15:54:59.911Z,30.00
2018-07-03T15:57:28.973Z,30.00
2018-07-03T15:59:58.239Z,31.00
2018-07-03T16:02:27.298Z,31.80
2018-07-03T16:05:10.034Z,31.60
2018-07-03T16:07:50.430Z,29.90
2018-07-03T16:10:21.431Z,29.90
2018-07-03T16:12:51.447Z,30.20
2018-07-03T16:15:20.510Z,31.50
2018-07-03T16:17:49.637Z,31.20
2018-07-03T16:20:24.746Z,31.90
2018-07-03T16:22:55.097Z,30.90
2018-07-03T16:25:24.133Z,31.50
2018-07-03T16:27:53.192Z,30.80
2018-07-03T16:30:24.338Z,31.20
2018-07-03T16:32:53.507Z,30.30
2018-07-03T16:35:22.970Z,29.30
2018-07-03T16:37:52.410Z,29.30
2018-07-03T16:40:21.476Z,29.20
2018-07-03T16:42:50.491Z,29.60
2018-07-03T16:45:19.594Z,30.60
2018-07-03T16:47:48.621Z,30.00
2018-07-03T16:50:17.700Z,30.00
2018-07-03T16:52:47.573Z,31.30
2018-07-03T16:55:16.568Z,31.90
2018-07-03T16:57:46.177Z,32.30
2018-07-03T17:00:21.710Z,32.90
2018-07-03T17:02:50.762Z,30.60
2018-07-03T17:05:20.521Z,31.00
2018-07-03T17:07:50.332Z,31.30
2018-07-03T17:10:19.350Z,31.30
2018-07-03T17:12:49.393Z,31.50
2018-07-03T17:15:18.478Z,31.00
2018-07-03T17:17:47.547Z,30.40
2018-07-03T17:20:16.549Z,31.30
2018-07-03T17:22:46.530Z,32.50
2018-07-03T17:25:15.635Z,33.10
2018-07-03T17:27:44.659Z,32.80
2018-07-03T17:30:13.728Z,33.20
2018-07-03T17:32:43.466Z,34.20
2018-07-03T17:35:13.780Z,34.30
2018-07-03T17:37:43.321Z,34.50
2018-07-03T17:40:26.187Z,34.90
2018-07-03T17:43:28.533Z,35.00
2018-07-03T17:46:05.858Z,35.00
2018-07-03T17:48:36.071Z,36.40
2018-07-03T17:51:06.295Z,36.50
2018-07-03T17:53:35.408Z,36.60
2018-07-03T17:56:04.486Z,36.40
2018-07-03T17:58:33.532Z,36.30
2018-07-03T18:01:02.603Z,36.70
2018-07-03T18:03:31.602Z,36.20
2018-07-03T18:06:00.620Z,36.80
2018-07-03T18:10:58.480Z,38.10
2018-07-03T18:13:27.496Z,38.70
2018-07-03T18:15:56.873Z,38.70
2018-07-03T18:18:25.891Z,39.40
2018-07-03T18:20:54.896Z,39.20
2018-07-03T18:23:23.950Z,39.30
2018-07-03T18:25:52.962Z,40.00
2018-07-03T18:28:22.436Z,39.80
2018-07-03T18:30:53.854Z,41.80
2018-07-03T18:33:22.917Z,42.10
2018-07-03T18:35:51.926Z,41.90
2018-07-03T18:38:20.963Z,42.00
2018-07-03T18:40:51.160Z,41.80
2018-07-03T18:43:20.947Z,41.30
2018-07-03T18:45:51.043Z,41.00
2018-07-03T18:48:21.142Z,41.60
2018-07-03T18:50:50.163Z,42.20
2018-07-03T18:53:19.196Z,42.80
2018-07-03T18:55:48.204Z,42.90
2018-07-03T18:58:18.521Z,43.30
2018-07-03T19:00:48.700Z,43.60
2018-07-03T19:03:18.313Z,45.30
2018-07-03T19:05:47.297Z,45.70
2018-07-03T19:08:16.346Z,46.20
2018-07-03T19:10:46.309Z,46.60
2018-07-03T19:13:15.348Z,47.60
2018-07-03T19:15:44.342Z,47.90
2018-07-03T19:18:13.858Z,48.90
2018-07-03T19:20:43.965Z,48.40
2018-07-03T19:23:12.965Z,47.40
2018-07-03T19:25:45.701Z,47.60
2018-07-03T19:28:14.730Z,47.50
2018-07-03T19:30:43.791Z,48.10
2018-07-03T19:33:16.593Z,48.50
2018-07-03T19:35:48.068Z,48.10
2018-07-03T19:38:17.092Z,48.20
2018-07-03T19:40:46.113Z,48.40
2018-07-03T19:43:22.868Z,50.50
2018-07-03T19:45:52.877Z,51.40
2018-07-03T19:48:21.910Z,51.30
2018-07-03T19:50:52.683Z,51.40
2018-07-03T19:53:21.692Z,50.70
2018-07-03T19:55:51.947Z,50.50
2018-07-03T19:58:21.706Z,51.20
2018-07-03T20:00:52.952Z,51.20
2018-07-03T20:03:22.015Z,51.80
2018-07-03T20:05:53.130Z,52.60
2018-07-03T20:08:22.574Z,52.00
2018-07-03T20:10:52.071Z,52.10
2018-07-03T20:13:21.115Z,52.70
2018-07-03T20:15:50.880Z,53.50
2018-07-03T20:18:21.316Z,54.40
2018-07-03T20:20:51.233Z,55.00
2018-07-03T20:23:20.311Z,54.50
2018-07-03T20:25:49.331Z,54.30
2018-07-03T20:28:18.406Z,54.50
2018-07-03T20:30:47.398Z,55.10
2018-07-03T20:33:16.426Z,54.30
2018-07-03T20:35:45.415Z,54.50
2018-07-03T20:38:14.451Z,55.10
2018-07-03T20:41:06.318Z,55.30
2018-07-03T20:43:36.826Z,55.00
2018-07-03T20:46:13.469Z,55.00
2018-07-03T20:48:48.131Z,55.50
2018-07-03T20:51:17.733Z,55.60
2018-07-03T20:53:47.833Z,55.80
2018-07-03T20:56:16.847Z,55.90
2018-07-03T20:58:45.868Z,56.20
2018-07-03T21:01:14.886Z,55.80
2018-07-03T21:03:44.016Z,56.30
2018-07-03T21:06:13.165Z,56.40
2018-07-03T21:08:43.658Z,56.40
2018-07-03T21:11:13.323Z,56.60
2018-07-03T21:16:10.989Z,57.10
2018-07-03T21:18:40.009Z,57.40
2018-07-03T21:21:10.201Z,57.70
2018-07-03T21:23:39.283Z,58.40
2018-07-03T21:26:08.299Z,58.50
2018-07-03T21:31:06.603Z,58.80
2018-07-03T21:33:36.102Z,58.10
2018-07-03T21:36:05.133Z,59.10
2018-07-03T21:38:36.580Z,59.90
2018-07-03T21:41:05.652Z,60.50
2018-07-03T21:43:36.043Z,61.30
2018-07-03T21:46:05.984Z,61.90
2018-07-03T21:48:35.028Z,62.60
2018-07-03T21:51:12.674Z,63.90
2018-07-03T21:53:55.337Z,64.70
2018-07-03T21:56:24.438Z,65.50
2018-07-03T21:58:54.098Z,65.60
2018-07-03T22:01:23.101Z,65.70
2018-07-03T22:03:52.686Z,65.70
2018-07-03T22:06:23.475Z,65.20
2018-07-03T22:08:52.548Z,65.70
2018-07-03T22:11:21.946Z,65.20
2018-07-03T22:13:51.142Z,65.10
2018-07-03T22:16:23.192Z,65.60
2018-07-03T22:18:52.207Z,65.70
2018-07-03T22:21:21.183Z,66.10
2018-07-03T22:23:50.198Z,66.00
2018-07-03T22:26:19.364Z,65.80
2018-07-03T22:28:48.806Z,66.20
2018-07-03T22:31:20.562Z,66.20
2018-07-03T22:33:49.747Z,67.10
2018-07-03T22:36:19.909Z,66.90
2018-07-03T22:38:49.142Z,66.70
2018-07-03T22:41:18.337Z,67.20
2018-07-03T22:43:47.504Z,67.00
2018-07-03T22:46:16.697Z,66.50
2018-07-03T22:48:45.969Z,66.20
2018-07-03T22:51:15.303Z,66.30
2018-07-03T22:53:44.458Z,66.80
2018-07-03T22:56:13.726Z,66.80
2018-07-03T22:58:42.863Z,67.00
2018-07-03T23:01:12.062Z,67.40
2018-07-03T23:03:41.240Z,67.40
2018-07-03T23:06:10.880Z,68.30
2018-07-03T23:08:40.102Z,68.40
2018-07-03T23:11:09.343Z,68.40
2018-07-03T23:13:38.532Z,68.60
2018-07-03T23:16:08.266Z,68.50
2018-07-03T23:18:38.292Z,68.40
2018-07-03T23:21:07.543Z,68.40
2018-07-03T23:23:36.729Z,68.90
2018-07-03T23:26:07.313Z,69.00
2018-07-03T23:28:36.489Z,69.30
2018-07-03T23:31:07.511Z,70.50
2018-07-03T23:33:36.663Z,70.20
2018-07-03T23:36:06.358Z,70.30
2018-07-03T23:38:36.065Z,70.00
2018-07-03T23:41:05.286Z,70.20
2018-07-03T23:43:34.446Z,71.10
2018-07-03T23:46:02.518Z,71.40
2018-07-03T23:48:43.713Z,72.50
2018-07-03T23:51:25.185Z,72.10
2018-07-03T23:54:05.542Z,71.90
2018-07-03T23:56:45.992Z,72.10
2018-07-03T23:59:26.371Z,73.00
